Map

Track Data

SID SEASON NUMBER BASIN SUBBASIN NAME ISO_TIME NATURE LAT LON WMO_WIND WMO_PRES WMO_AGENCY TRACK_TYPE DIST2LAND LANDFALL IFLAG USA_AGENCY USA_ATCF_ID USA_LAT USA_LON USA_RECORD USA_STATUS USA_WIND USA_PRES USA_SSHS USA_R34_NE USA_R34_SE USA_R34_SW USA_R34_NW USA_R50_NE USA_R50_SE USA_R50_SW USA_R50_NW USA_R64_NE USA_R64_SE USA_R64_SW USA_R64_NW USA_POCI USA_ROCI USA_RMW USA_EYE TOKYO_LAT TOKYO_LON TOKYO_GRADE TOKYO_WIND TOKYO_PRES TOKYO_R50_DIR TOKYO_R50_LONG TOKYO_R50_SHORT TOKYO_R30_DIR TOKYO_R30_LONG TOKYO_R30_SHORT TOKYO_LAND CMA_LAT CMA_LON CMA_CAT CMA_WIND CMA_PRES HKO_LAT HKO_LON HKO_CAT HKO_WIND HKO_PRES NEWDELHI_LAT NEWDELHI_LON NEWDELHI_GRADE NEWDELHI_WIND NEWDELHI_PRES NEWDELHI_CI NEWDELHI_DP NEWDELHI_POCI REUNION_LAT REUNION_LON REUNION_TYPE REUNION_WIND REUNION_PRES REUNION_TNUM REUNION_CI REUNION_RMW REUNION_R34_NE REUNION_R34_SE REUNION_R34_SW REUNION_R34_NW REUNION_R50_NE REUNION_R50_SE REUNION_R50_SW REUNION_R50_NW REUNION_R64_NE REUNION_R64_SE REUNION_R64_SW REUNION_R64_NW BOM_LAT BOM_LON BOM_TYPE BOM_WIND BOM_PRES BOM_TNUM BOM_CI BOM_RMW BOM_R34_NE BOM_R34_SE BOM_R34_SW BOM_R34_NW BOM_R50_NE BOM_R50_SE BOM_R50_SW BOM_R50_NW BOM_R64_NE BOM_R64_SE BOM_R64_SW BOM_R64_NW BOM_ROCI BOM_POCI BOM_EYE BOM_POS_METHOD BOM_PRES_METHOD NADI_LAT NADI_LON NADI_CAT NADI_WIND NADI_PRES WELLINGTON_LAT WELLINGTON_LON WELLINGTON_WIND WELLINGTON_PRES DS824_LAT DS824_LON DS824_STAGE DS824_WIND DS824_PRES TD9636_LAT TD9636_LON TD9636_STAGE TD9636_WIND TD9636_PRES TD9635_LAT TD9635_LON TD9635_WIND TD9635_PRES TD9635_ROCI NEUMANN_LAT NEUMANN_LON NEUMANN_CLASS NEUMANN_WIND NEUMANN_PRES MLC_LAT MLC_LON MLC_CLASS MLC_WIND MLC_PRES USA_GUST BOM_GUST BOM_GUST_PER REUNION_GUST REUNION_GUST_PER USA_SEAHGT USA_SEARAD_NE USA_SEARAD_SE USA_SEARAD_SW USA_SEARAD_NW STORM_SPEED STORM_DIR
1949017S09171 1949 4 SP MM NOT_NAMED 1949-01-17 00:00:00 TS -9.30000 170.600 main 743 682 O________OO___ jtwc_sh SH091949 -9.30000 170.600 -1 -9.30000 170.600 TC -9.30000 170.600 4 12 227
1949017S09171 1949 4 SP MM NOT_NAMED 1949-01-17 03:00:00 TS -9.70994 170.147 main 676 615 P________PP___ SH091949 -9.70765 170.135 -1 -9.70765 170.135 TC -9.71451 170.170 4 12 227
1949017S09171 1949 4 SP MM NOT_NAMED 1949-01-17 06:00:00 TS -10.1043 169.717 main 615 559 O________OP___ jtwc_sh SH091949 -10.1000 169.700 -1 -10.1000 169.700 TC -10.1130 169.751 4 11 227
1949017S09171 1949 4 SP MM NOT_NAMED 1949-01-17 09:00:00 TS -10.4700 169.332 main 554 508 P________PP___ SH091949 -10.4649 169.320 -1 -10.4649 169.320 TC -10.4800 169.357 4 10 225
1949017S09171 1949 4 SP MM NOT_NAMED 1949-01-17 12:00:00 TS -10.8000 169.000 main 508 462 O________OO___ jtwc_sh SH091949 -10.8000 169.000 -1 -10.8000 169.000 TC -10.8000 169.000 4 9 224
1949017S09171 1949 4 SP MM NOT_NAMED 1949-01-17 15:00:00 TS -11.0945 168.720 main 462 423 P________PP___ SH091949 -11.1074 168.735 -1 -11.1074 168.735 TC -11.0686 168.690 4 8 222
1949017S09171 1949 4 SP MM NOT_NAMED 1949-01-17 18:00:00 TS -11.3749 168.475 main 423 387 O________OP___ jtwc_sh SH091949 -11.4000 168.500 -1 -11.4000 168.500 TC -11.3248 168.424 4 7 221
1949017S09171 1949 4 SP MM NOT_NAMED 1949-01-17 21:00:00 TS -11.6429 168.232 main 387 338 P________PP___ SH091949 -11.6550 168.250 -1 -11.6550 168.250 TC -11.6187 168.196 4 8 217
1949017S09171 1949 4 SP MM NOT_NAMED 1949-01-18 00:00:00 TS -12.0000 168.000 main 338 273 O________OO___ jtwc_sh SH091949 -12.0000 168.000 -1 -12.0000 168.000 TC -12.0000 168.000 4 10 208
1949017S09171 1949 4 SP MM NOT_NAMED 1949-01-18 03:00:00 TS -12.5490 167.729 main 273 194 P________PP___ SH091949 -12.5476 167.720 -1 -12.5476 167.720 TC -12.5518 167.745 4 13 202
1949017S09171 1949 4 SP MM NOT_NAMED 1949-01-18 06:00:00 TS -13.1966 167.510 main 194 132 O________OP___ jtwc_sh SH091949 -13.2000 167.500 -1 -13.2000 167.500 TC -13.1898 167.530 4 14 194
1949017S09171 1949 4 SP MM NOT_NAMED 1949-01-18 09:00:00 TS -13.8576 167.383 main 124 64 P________PP___ SH091949 -13.8574 167.375 -1 -13.8574 167.375 TC -13.8580 167.399 4 13 185
1949017S09171 1949 4 SP MM NOT_NAMED 1949-01-18 12:00:00 TS -14.5000 167.400 main 64 42 O________OO___ jtwc_sh SH091949 -14.5000 167.400 -1 -14.5000 167.400 TC -14.5000 167.400 4 12 171
1949017S09171 1949 4 SP MM NOT_NAMED 1949-01-18 15:00:00 TS -15.0748 167.580 main 53 53 P________PP___ SH091949 -15.0800 167.582 -1 -15.0800 167.582 TC -15.0644 167.575 4 12 156
1949017S09171 1949 4 SP MM NOT_NAMED 1949-01-18 18:00:00 TS -15.5967 167.894 main 69 54 O________OP___ jtwc_sh SH091949 -15.6000 167.900 -1 -15.6000 167.900 TC -15.5901 167.883 4 12 146
1949017S09171 1949 4 SP MM NOT_NAMED 1949-01-18 21:00:00 TS -16.0769 168.277 main 57 54 P________PP___ SH091949 -16.0800 168.277 -1 -16.0800 168.277 TC -16.0707 168.275 4 12 139
1949017S09171 1949 4 SP MM NOT_NAMED 1949-01-19 00:00:00 TS -16.5000 168.700 main 95 95 O________OO___ jtwc_sh SH091949 -16.5000 168.700 -1 -16.5000 168.700 TC -16.5000 168.700 4 11 135
1949017S09171 1949 4 SP MM NOT_NAMED 1949-01-19 03:00:00 TS -16.8748 169.097 main 142 142 P________PP___ SH091949 -16.8724 169.100 -1 -16.8724 169.100 TC -16.8794 169.091 4 10 133
1949017S09171 1949 4 SP MM NOT_NAMED 1949-01-19 06:00:00 TS -17.2034 169.500 main 192 192 O________OP___ jtwc_sh SH091949 -17.2000 169.500 -1 -17.2000 169.500 TC -17.2101 169.501 4 10 129
1949017S09171 1949 4 SP MM NOT_NAMED 1949-01-19 09:00:00 TS -17.5136 169.913 main 244 244 P________PP___ SH091949 -17.5150 169.915 -1 -17.5150 169.915 TC -17.5107 169.910 4 10 128
1949017S09171 1949 4 SP MM NOT_NAMED 1949-01-19 12:00:00 TS -17.8000 170.300 main 297 297 O________OO___ jtwc_sh SH091949 -17.8000 170.300 -1 -17.8000 170.300 TC -17.8000 170.300 4 9 129
1949017S09171 1949 4 SP MM NOT_NAMED 1949-01-19 15:00:00 TS -18.0528 170.606 main 341 341 P________PP___ SH091949 -18.0423 170.608 -1 -18.0423 170.608 TC -18.0737 170.604 4 8 132
1949017S09171 1949 4 SP MM NOT_NAMED 1949-01-19 18:00:00 TS -18.3153 170.898 main 379 379 O________OP___ jtwc_sh SH091949 -18.3000 170.900 -1 -18.3000 170.900 TC -18.3460 170.893 4 8 135
1949017S09171 1949 4 SP MM NOT_NAMED 1949-01-19 21:00:00 TS -18.6233 171.207 main 424 424 P________PP___ SH091949 -18.6122 171.206 -1 -18.6122 171.206 TC -18.6454 171.210 4 10 136
1949017S09171 1949 4 SP MM NOT_NAMED 1949-01-20 00:00:00 TS -19.0000 171.600 main 483 483 O________OO___ jtwc_sh SH091949 -19.0000 171.600 -1 -19.0000 171.600 TC -19.0000 171.600 4 12 133
1949017S09171 1949 4 SP MM NOT_NAMED 1949-01-20 03:00:00 TS -19.4661 172.147 main 558 518 P________PP___ SH091949 -19.4776 172.162 -1 -19.4776 172.162 TC -19.4429 172.116 4 15 132
1949017S09171 1949 4 SP MM NOT_NAMED 1949-01-20 06:00:00 TS -19.9802 172.770 main 513 489 O________OP___ jtwc_sh SH091949 -20.0000 172.800 -1 -20.0000 172.800 TC -19.9405 172.710 4 16 131
1949017S09171 1949 4 SP MM NOT_NAMED 1949-01-20 09:00:00 TS -20.4891 173.383 main 487 474 P________PP___ SH091949 -20.4998 173.400 -1 -20.4998 173.400 TC -20.4678 173.348 4 15 132
1949017S09171 1949 4 SP MM NOT_NAMED 1949-01-20 12:00:00 TS -21.0000 174.000 main 474 466 O________OO___ jtwc_sh SH091949 -21.0000 174.000 -1 -21.0000 174.000 TC -21.0000 174.000 4 15 132
1949017S09171 1949 4 SP MM NOT_NAMED 1949-01-20 15:00:00 TS -21.4963 174.581 main 473 473 P________PP___ SH091949 -21.4997 174.593 -1 -21.4997 174.593 TC -21.4894 174.556 4 15 132
1949017S09171 1949 4 SP MM NOT_NAMED 1949-01-20 18:00:00 TS -21.9937 175.176 main 488 488 O________OP___ jtwc_sh SH091949 -22.0000 175.200 -1 -22.0000 175.200 TC -21.9810 175.128 4 15 132
1949017S09171 1949 4 SP MM NOT_NAMED 1949-01-20 21:00:00 TS -22.4886 175.786 main 516 512 P________PP___ SH091949 -22.4917 175.799 -1 -22.4917 175.799 TC -22.4823 175.760 4 16 129
1949017S09171 1949 4 SP MM NOT_NAMED 1949-01-21 00:00:00 TS -23.0000 176.500 main 545 545 O________OO___ jtwc_sh SH091949 -23.0000 176.500 -1 -23.0000 176.500 TC -23.0000 176.500 4 18 126
1949017S09171 1949 4 SP MM NOT_NAMED 1949-01-21 03:00:00 TS -23.5524 177.387 main 594 594 P________PP___ SH091949 -23.5422 177.383 -1 -23.5422 177.383 TC -23.5727 177.396 4 21 123
1949017S09171 1949 4 SP MM NOT_NAMED 1949-01-21 06:00:00 TS -24.1177 178.402 main 648 648 O________OP___ jtwc_sh SH091949 -24.1000 178.400 -1 -24.1000 178.400 TC -24.1530 178.405 4 22 121
1949017S09171 1949 4 SP MM NOT_NAMED 1949-01-21 09:00:00 TS -24.6836 179.481 main 728 728 P________PP___ SH091949 -24.6722 179.478 -1 -24.6722 179.478 TC -24.7065 179.487 4 23 118
1949017S09171 1949 4 SP MM NOT_NAMED 1949-01-21 12:00:00 TS -25.2000 180.600 main 810 810 O________OO___ jtwc_sh SH091949 -25.2000 -179.400 -1 -25.2000 180.600 TC -25.2000 -179.400 4 22 115
1949017S09171 1949 4 SP MM NOT_NAMED 1949-01-21 15:00:00 TS -25.6331 181.686 main 892 892 P________PP___ SH091949 -25.6442 -178.299 -1 -25.6442 -178.299 TC -25.6109 -178.343 4 21 112
1949017S09171 1949 4 SP MM NOT_NAMED 1949-01-21 18:00:00 TS -25.9860 182.779 main 978 978 O________OP___ jtwc_sh SH091949 -26.0000 -177.200 -1 -26.0000 182.800 TC -25.9579 -177.264 4 21 108
1949017S09171 1949 4 SP MM NOT_NAMED 1949-01-21 21:00:00 TS -26.2744 183.868 main 1061 1061 P________PP___ SH091949 -26.2861 -176.122 -1 -26.2861 -176.122 TC -26.2510 -176.153 4 21 104
1949017S09171 1949 4 SP MM NOT_NAMED 1949-01-22 00:00:00 TS -26.5000 185.000 main 1140 1140 O________OO___ jtwc_sh SH091949 -26.5000 -175.000 -1 -26.5000 185.000 TC -26.5000 -175.000 4 22 101
1949017S09171 1949 4 SP MM NOT_NAMED 1949-01-22 03:00:00 TS -26.6763 186.236 main 1231 1231 P________PP___ SH091949 -26.6570 -173.772 -1 -26.6570 -173.772 TC -26.7149 -173.750 4 23 98
1949017S09171 1949 4 SP MM NOT_NAMED 1949-01-22 06:00:00 TS -26.8297 187.511 main 1326 1326 O________OP___ jtwc_sh SH091949 -26.8000 -172.500 -1 -26.8000 187.500 TC -26.8890 -172.467 4 23 98
1949017S09171 1949 4 SP MM NOT_NAMED 1949-01-22 09:00:00 TS -27.0093 188.792 main 1435 1435 P________PP___ SH091949 -26.9923 -171.213 -1 -26.9923 -171.213 TC -27.0432 -171.200 4 22 99
1949017S09171 1949 4 SP MM NOT_NAMED 1949-01-22 12:00:00 TS -27.2000 190.000 main 1515 1515 O________OO___ jtwc_sh SH091949 -27.2000 -170.000 -1 -27.2000 190.000 TC -27.2000 -170.000 4 20 101
1949017S09171 1949 4 SP MM NOT_NAMED 1949-01-22 15:00:00 TS -27.3907 191.023 main 1556 1556 P________PP___ SH091949 -27.3984 -168.962 -1 -27.3984 -168.962 TC -27.3752 -169.006 4 18 102
1949017S09171 1949 4 SP MM NOT_NAMED 1949-01-22 18:00:00 TS -27.5879 191.977 main 1603 1603 O________OP___ jtwc_sh SH091949 -27.6000 -168.000 -1 -27.6000 192.000 TC -27.5638 -168.070 4 17 103
1949017S09171 1949 4 SP MM NOT_NAMED 1949-01-22 21:00:00 TS -27.7836 192.918 main 1652 1652 P________PP___ SH091949 -27.7899 -167.074 -1 -27.7899 -167.074 TC -27.7711 -167.099 4 18 103
1949017S09171 1949 4 SP MM NOT_NAMED 1949-01-23 00:00:00 TS -28.0000 194.000 main 1712 1712 O________OO___ jtwc_sh SH091949 -28.0000 -166.000 -1 -28.0000 194.000 TC -28.0000 -166.000 4 23 102
1949017S09171 1949 4 SP MM NOT_NAMED 1949-01-23 03:00:00 TS -28.2426 195.422 main 1791 1791 P________PP___ SH091949 -28.2430 -164.575 -1 -28.2430 -164.575 TC -28.2418 -164.584 4 27 101
1949017S09171 1949 4 SP MM NOT_NAMED 1949-01-23 06:00:00 TS -28.4980 196.987 main 1898 1898 O________OP___ jtwc_sh SH091949 -28.5000 -163.000 -1 -28.5000 197.000 TC -28.4941 -163.039 4 28 100
1949017S09171 1949 4 SP MM NOT_NAMED 1949-01-23 09:00:00 TS -28.7492 198.539 main 1998 1998 P________PP___ SH091949 -28.7497 -161.455 -1 -28.7497 -161.455 TC -28.7480 -161.474 4 27 101
1949017S09171 1949 4 SP MM NOT_NAMED 1949-01-23 12:00:00 TS -29.0000 200.000 main 2113 2113 O________OO___ jtwc_sh SH091949 -29.0000 -160.000 -1 -29.0000 200.000 TC -29.0000 -160.000 4 24 102
1949017S09171 1949 4 SP MM NOT_NAMED 1949-01-23 15:00:00 TS -29.2490 201.278 main 2212 2212 P________PP___ SH091949 -29.2482 -158.732 -1 -29.2482 -158.732 TC -29.2507 -158.701 4 22 103
1949017S09171 1949 4 SP MM NOT_NAMED 1949-01-23 18:00:00 TS -29.5006 202.416 main 2309 2309 O________OP___ jtwc_sh SH091949 -29.5000 -157.600 -1 -29.5000 202.400 TC -29.5018 -157.553 4 20 105
1949017S09171 1949 4 SP MM NOT_NAMED 1949-01-23 21:00:00 TS -29.7521 203.475 main 2407 2407 P________PP___ SH091949 -29.7519 -156.536 -1 -29.7519 -156.536 TC -29.7525 -156.503 4 19 105
1949017S09171 1949 4 SP MM NOT_NAMED 1949-01-24 00:00:00 TS -30.0000 204.500 main 2492 O________OO___ jtwc_sh SH091949 -30.0000 -155.500 -1 -30.0000 204.500 TC -30.0000 -155.500 4 18 106

Digital Typhoon Data and Search

About IBTrACS Database

This database is a web-friendly format of International Best Track Archive for Climate Stewardship (IBTrACS), a global best track data archive curated by NOAA dating back to 1842.

Updated: 2021-10-27